Time;durP1;ratioP1;P1;durP2;ratioP2;P2;SDS_P1;SDS_P2;PMS_P1;PMS_P2;Temp;Humidity;BMP_temperature;BMP_pressure;BME280_temperature;BME280_humidity;BME280_pressure;Samples;Min_cycle;Max_cycle;Signal;HPM_P1;HPM_P2
2022/03/27 00:01:19;;;;;;;40.85;10.60;;;;;;;;;;4999793;28;20391;-77
2022/03/27 00:03:45;;;;;;;37.35;9.88;;;;;;;;;;5017940;28;20101;-75
2022/03/27 00:06:11;;;;;;;45.15;9.95;;;;;;;;;;5016751;28;20053;-77
2022/03/27 00:08:37;;;;;;;23.48;8.43;;;;;;;;;;5016791;28;20105;-77
2022/03/27 00:13:48;;;;;;;33.63;8.60;;;;;;;;;;4994184;28;20088;-74
2022/03/27 00:16:14;;;;;;;35.47;9.93;;;;;;;;;;4993487;28;20030;-73
2022/03/27 00:18:41;;;;;;;33.00;9.45;;;;;;;;;;4997251;28;20045;-73
2022/03/27 00:21:07;;;;;;;40.25;9.93;;;;;;;;;;4993722;28;20027;-74
2022/03/27 00:23:33;;;;;;;33.33;9.68;;;;;;;;;;4993605;28;20458;-73
2022/03/27 00:25:59;;;;;;;35.15;9.98;;;;;;;;;;4993230;28;20054;-73
2022/03/27 00:28:25;;;;;;;29.20;9.30;;;;;;;;;;4993472;28;20018;-73
2022/03/27 00:30:52;;;;;;;38.15;9.40;;;;;;;;;;4993442;28;20118;-74
2022/03/27 00:33:18;;;;;;;36.95;9.50;;;;;;;;;;4994815;28;20030;-73
2022/03/27 00:35:45;;;;;;;35.08;10.60;;;;;;;;;;4976265;28;20129;-73
2022/03/27 00:38:11;;;;;;;38.10;10.25;;;;;;;;;;4993333;28;20027;-73
2022/03/27 00:40:37;;;;;;;38.85;9.23;;;;;;;;;;4993082;28;20399;-75
2022/03/27 00:43:04;;;;;;;46.67;10.13;;;;;;;;;;4993629;28;20415;-72
2022/03/27 00:45:30;;;;;;;52.75;10.52;;;;;;;;;;4992836;28;20019;-74
2022/03/27 00:47:56;;;;;;;45.00;10.32;;;;;;;;;;4993356;28;20030;-74
2022/03/27 00:50:22;;;;;;;37.78;8.43;;;;;;;;;;4993466;28;20029;-73
2022/03/27 00:52:48;;;;;;;33.63;8.18;;;;;;;;;;4995017;28;20030;-74
2022/03/27 00:55:14;;;;;;;33.40;8.77;;;;;;;;;;4998237;28;20030;-73
2022/03/27 00:57:40;;;;;;;42.00;9.75;;;;;;;;;;4996763;28;20133;-74
2022/03/27 01:00:09;;;;;;;39.15;9.82;;;;;;;;;;4999856;28;20061;-73
2022/03/27 01:02:36;;;;;;;36.20;9.35;;;;;;;;;;4988982;28;20034;-74
2022/03/27 01:05:08;;;;;;;34.50;9.05;;;;;;;;;;5008197;28;20022;-74
2022/03/27 01:07:34;;;;;;;37.95;10.77;;;;;;;;;;4999874;28;20053;-74
2022/03/27 01:09:59;;;;;;;42.72;12.20;;;;;;;;;;4977148;28;20491;-73
2022/03/27 01:12:32;;;;;;;62.20;16.80;;;;;;;;;;4993876;28;20112;-73
2022/03/27 01:14:59;;;;;;;70.05;20.17;;;;;;;;;;4993678;28;20034;-74
2022/03/27 01:17:26;;;;;;;80.85;22.80;;;;;;;;;;4992724;28;20026;-73
2022/03/27 01:19:54;;;;;;;74.70;20.05;;;;;;;;;;4992624;28;20495;-73
2022/03/27 01:22:20;;;;;;;64.13;18.30;;;;;;;;;;4992695;28;20106;-73
2022/03/27 01:24:47;;;;;;;54.97;16.98;;;;;;;;;;4992748;28;20027;-72
2022/03/27 01:27:12;;;;;;;63.13;18.05;;;;;;;;;;4992481;28;20053;-73
2022/03/27 01:29:39;;;;;;;59.03;16.25;;;;;;;;;;4992592;28;20030;-72
2022/03/27 01:32:06;;;;;;;51.75;14.27;;;;;;;;;;4993156;28;20387;-72
2022/03/27 01:34:33;;;;;;;49.03;15.40;;;;;;;;;;4992998;28;20033;-72
2022/03/27 01:37:07;;;;;;;61.90;15.88;;;;;;;;;;4992615;28;20081;-74
2022/03/27 01:39:33;;;;;;;75.35;17.38;;;;;;;;;;4992662;28;20027;-73
2022/03/27 01:41:59;;;;;;;60.65;16.00;;;;;;;;;;4992321;28;20022;-73
2022/03/27 01:44:25;;;;;;;67.18;13.98;;;;;;;;;;4992529;28;20491;-73
2022/03/27 01:46:51;;;;;;;91.15;15.65;;;;;;;;;;4992363;28;20064;-73
2022/03/27 01:49:19;;;;;;;56.47;13.18;;;;;;;;;;4992520;28;20027;-74
2022/03/27 01:51:45;;;;;;;66.07;14.63;;;;;;;;;;4992409;28;20387;-73
2022/03/27 01:54:12;;;;;;;62.47;15.40;;;;;;;;;;4992469;28;20145;-73
2022/03/27 01:56:38;;;;;;;69.97;16.52;;;;;;;;;;4992435;28;20037;-73
2022/03/27 01:59:05;;;;;;;70.20;16.38;;;;;;;;;;4992318;28;20031;-72
2022/03/27 02:01:31;;;;;;;58.65;15.52;;;;;;;;;;4992080;28;20085;-73
2022/03/27 02:03:57;;;;;;;47.53;14.45;;;;;;;;;;4992219;28;20090;-74
2022/03/27 02:06:23;;;;;;;50.55;13.88;;;;;;;;;;4991944;28;20014;-73
2022/03/27 02:08:51;;;;;;;45.25;13.13;;;;;;;;;;4992319;28;20022;-74
2022/03/27 02:11:17;;;;;;;44.10;13.38;;;;;;;;;;4992010;28;20061;-73
2022/03/27 02:13:43;;;;;;;49.78;15.15;;;;;;;;;;4992154;28;20062;-74
2022/03/27 02:16:09;;;;;;;46.20;14.43;;;;;;;;;;4991991;28;20034;-73
2022/03/27 02:18:35;;;;;;;48.83;13.65;;;;;;;;;;4992113;28;20034;-73
2022/03/27 02:21:01;;;;;;;42.92;13.98;;;;;;;;;;4974758;28;20042;-73
2022/03/27 02:23:28;;;;;;;128.95;12.77;;;;;;;;;;4974888;28;20125;-73
2022/03/27 02:25:54;;;;;;;42.17;13.48;;;;;;;;;;4979744;28;20030;-73
2022/03/27 02:28:20;;;;;;;32.08;13.68;;;;;;;;;;5012380;28;20058;-73
2022/03/27 02:30:46;;;;;;;37.13;13.50;;;;;;;;;;5012857;28;20022;-73
2022/03/27 02:33:12;;;;;;;60.47;11.93;;;;;;;;;;5014147;28;20031;-74
2022/03/27 02:35:38;;;;;;;35.03;13.00;;;;;;;;;;4999855;28;20161;-74
2022/03/27 02:38:05;;;;;;;32.90;11.60;;;;;;;;;;4996999;28;20023;-74
2022/03/27 02:40:31;;;;;;;26.63;10.68;;;;;;;;;;4996336;28;20097;-74
2022/03/27 02:42:59;;;;;;;29.98;10.73;;;;;;;;;;4997449;28;20137;-73
2022/03/27 02:45:26;;;;;;;35.00;10.98;;;;;;;;;;4998981;28;20019;-74
2022/03/27 02:47:52;;;;;;;26.25;10.05;;;;;;;;;;5008523;28;20440;-74
2022/03/27 02:50:18;;;;;;;26.92;10.52;;;;;;;;;;4998069;28;20495;-73
2022/03/27 02:52:44;;;;;;;26.65;9.95;;;;;;;;;;4996210;28;20030;-73
2022/03/27 02:55:11;;;;;;;25.80;9.98;;;;;;;;;;4998497;28;20073;-73
2022/03/27 02:57:37;;;;;;;24.63;10.60;;;;;;;;;;4980881;28;20510;-74
2022/03/27 03:00:04;;;;;;;20.92;9.10;;;;;;;;;;4996046;28;20030;-74
2022/03/27 03:02:30;;;;;;;16.88;8.38;;;;;;;;;;4995618;28;20117;-73
2022/03/27 03:04:56;;;;;;;21.48;9.27;;;;;;;;;;4995516;28;20149;-73
2022/03/27 03:07:22;;;;;;;19.85;9.05;;;;;;;;;;4995758;28;20027;-74
2022/03/27 03:09:48;;;;;;;17.80;8.95;;;;;;;;;;4999005;28;20510;-75
2022/03/27 03:12:14;;;;;;;20.08;10.02;;;;;;;;;;4999867;28;20030;-74
2022/03/27 03:14:40;;;;;;;19.23;9.95;;;;;;;;;;4997243;28;20037;-74
2022/03/27 03:17:08;;;;;;;15.45;9.77;;;;;;;;;;4998990;28;20435;-75
2022/03/27 03:19:34;;;;;;;22.10;10.82;;;;;;;;;;4996959;28;20484;-73
2022/03/27 03:22:01;;;;;;;18.10;9.93;;;;;;;;;;4995891;28;20026;-74
2022/03/27 03:24:27;;;;;;;22.08;9.50;;;;;;;;;;4979307;28;20105;-74
2022/03/27 03:26:54;;;;;;;22.67;9.18;;;;;;;;;;4996623;28;20033;-73
2022/03/27 03:29:21;;;;;;;19.85;9.98;;;;;;;;;;4995358;28;20030;-74
2022/03/27 03:31:47;;;;;;;19.70;9.45;;;;;;;;;;4994930;28;20368;-74
2022/03/27 03:34:15;;;;;;;41.92;7.88;;;;;;;;;;4995282;28;20027;-73
2022/03/27 03:36:41;;;;;;;34.28;9.10;;;;;;;;;;4994678;28;20491;-74
2022/03/27 03:39:08;;;;;;;78.57;9.55;;;;;;;;;;4977633;28;20205;-74
2022/03/27 03:41:34;;;;;;;21.33;10.10;;;;;;;;;;4995136;28;20030;-74
2022/03/27 03:44:00;;;;;;;17.45;10.75;;;;;;;;;;4995300;28;20026;-74
2022/03/27 03:46:26;;;;;;;18.40;11.00;;;;;;;;;;4995164;28;20026;-74
2022/03/27 03:48:52;;;;;;;19.15;10.27;;;;;;;;;;4977764;28;20027;-74
2022/03/27 03:51:19;;;;;;;17.23;10.27;;;;;;;;;;4976844;28;20034;-74
2022/03/27 03:53:45;;;;;;;26.40;11.38;;;;;;;;;;4995149;28;20026;-75
2022/03/27 03:56:11;;;;;;;19.50;11.02;;;;;;;;;;4995828;28;20027;-74
2022/03/27 03:58:37;;;;;;;19.83;11.23;;;;;;;;;;4987076;28;20026;-74
2022/03/27 04:01:03;;;;;;;22.23;11.63;;;;;;;;;;5004690;28;20034;-74
2022/03/27 04:03:29;;;;;;;23.00;11.88;;;;;;;;;;4995297;28;20053;-74
2022/03/27 04:05:55;;;;;;;24.05;11.48;;;;;;;;;;4993303;28;20033;-73
2022/03/27 04:08:21;;;;;;;31.27;12.77;;;;;;;;;;4994159;28;20026;-73
2022/03/27 04:10:47;;;;;;;21.67;11.98;;;;;;;;;;4993782;28;20027;-74
2022/03/27 04:13:13;;;;;;;37.03;13.05;;;;;;;;;;4994633;28;20046;-74
2022/03/27 04:15:40;;;;;;;21.77;12.23;;;;;;;;;;4994794;28;20053;-74
2022/03/27 04:18:06;;;;;;;22.05;11.45;;;;;;;;;;4993917;28;20053;-75
2022/03/27 04:20:32;;;;;;;24.40;11.68;;;;;;;;;;4993727;28;20046;-75
2022/03/27 04:22:58;;;;;;;22.67;12.45;;;;;;;;;;4993816;28;20507;-74
2022/03/27 04:25:24;;;;;;;23.85;12.07;;;;;;;;;;4976303;28;20442;-74
2022/03/27 04:27:50;;;;;;;21.05;12.23;;;;;;;;;;5002494;28;20054;-73
2022/03/27 04:30:16;;;;;;;26.50;12.32;;;;;;;;;;5013119;28;20509;-74
2022/03/27 04:32:42;;;;;;;17.95;11.73;;;;;;;;;;5007788;28;20081;-74
2022/03/27 04:35:09;;;;;;;18.02;11.82;;;;;;;;;;5010938;28;20057;-72
2022/03/27 04:37:39;;;;;;;25.38;11.52;;;;;;;;;;5007023;28;20082;-72
2022/03/27 04:40:05;;;;;;;24.75;12.57;;;;;;;;;;5004089;28;20030;-72
2022/03/27 04:42:31;;;;;;;17.17;10.85;;;;;;;;;;4993451;28;20034;-73
2022/03/27 04:44:57;;;;;;;29.63;12.57;;;;;;;;;;4993398;28;20033;-76
2022/03/27 04:47:23;;;;;;;20.98;12.35;;;;;;;;;;4993189;28;20030;-73
2022/03/27 04:49:49;;;;;;;22.30;12.55;;;;;;;;;;4993099;28;20019;-72
2022/03/27 04:52:15;;;;;;;23.27;12.43;;;;;;;;;;4992570;28;20375;-73
2022/03/27 04:54:41;;;;;;;33.83;13.50;;;;;;;;;;4993038;28;20177;-74
2022/03/27 04:57:07;;;;;;;26.48;11.52;;;;;;;;;;4992963;28;20073;-74
2022/03/27 04:59:33;;;;;;;29.10;13.30;;;;;;;;;;4993179;28;20109;-73
2022/03/27 05:02:01;;;;;;;23.88;12.65;;;;;;;;;;4992850;28;20170;-73
2022/03/27 05:04:27;;;;;;;31.90;12.88;;;;;;;;;;4975445;28;20027;-74
2022/03/27 05:06:53;;;;;;;26.17;12.95;;;;;;;;;;4992780;28;20033;-75
2022/03/27 05:09:19;;;;;;;38.05;13.20;;;;;;;;;;4993745;28;20060;-76
2022/03/27 05:11:46;;;;;;;30.85;13.90;;;;;;;;;;4996944;28;20034;-75
2022/03/27 05:14:12;;;;;;;57.25;13.65;;;;;;;;;;4996136;28;20117;-73
2022/03/27 05:16:38;;;;;;;25.77;12.88;;;;;;;;;;4992832;28;20053;-73
2022/03/27 05:19:07;;;;;;;30.02;13.45;;;;;;;;;;4993162;28;20030;-76
2022/03/27 05:21:33;;;;;;;28.30;14.52;;;;;;;;;;4992724;28;20101;-73
2022/03/27 05:23:59;;;;;;;26.35;13.40;;;;;;;;;;4993064;28;20027;-72
2022/03/27 05:26:25;;;;;;;22.10;12.43;;;;;;;;;;4992634;28;20029;-72
2022/03/27 05:28:52;;;;;;;26.05;14.23;;;;;;;;;;4992869;28;20022;-74
2022/03/27 05:31:18;;;;;;;29.20;12.82;;;;;;;;;;4993055;28;20484;-73
2022/03/27 05:33:44;;;;;;;22.88;11.13;;;;;;;;;;4992492;28;20038;-73
2022/03/27 05:36:10;;;;;;;23.52;11.98;;;;;;;;;;4992492;28;20062;-73
2022/03/27 05:38:38;;;;;;;24.52;12.90;;;;;;;;;;4994684;28;20022;-76
2022/03/27 05:41:04;;;;;;;29.38;13.02;;;;;;;;;;4992745;28;20031;-74
2022/03/27 05:43:30;;;;;;;29.80;13.98;;;;;;;;;;4994514;28;20033;-74
2022/03/27 05:45:56;;;;;;;31.83;13.70;;;;;;;;;;4996111;28;20026;-73
2022/03/27 05:48:22;;;;;;;25.80;12.52;;;;;;;;;;4995968;28;20379;-73
2022/03/27 05:50:48;;;;;;;28.88;12.55;;;;;;;;;;5000821;28;20037;-73
2022/03/27 05:53:15;;;;;;;64.82;10.63;;;;;;;;;;4998435;28;20042;-74
2022/03/27 05:55:41;;;;;;;19.58;10.15;;;;;;;;;;4999567;28;20022;-74
2022/03/27 05:58:07;;;;;;;36.75;9.80;;;;;;;;;;4994923;28;20026;-74
2022/03/27 06:00:33;;;;;;;17.85;8.82;;;;;;;;;;4992470;28;20537;-73
2022/03/27 06:02:59;;;;;;;23.85;8.35;;;;;;;;;;4993737;28;20026;-74
2022/03/27 06:05:25;;;;;;;35.97;7.38;;;;;;;;;;4996940;28;20065;-72
2022/03/27 06:07:53;;;;;;;17.27;7.55;;;;;;;;;;4999721;28;20018;-72
2022/03/27 06:10:20;;;;;;;73.30;9.15;;;;;;;;;;5021795;22;20047;-77
2022/03/27 06:12:46;;;;;;;21.55;8.30;;;;;;;;;;4981552;28;20084;-76
2022/03/27 06:15:12;;;;;;;19.80;7.05;;;;;;;;;;4995967;28;20113;-75
2022/03/27 06:17:39;;;;;;;14.45;7.97;;;;;;;;;;4995290;28;20041;-74
2022/03/27 06:20:06;;;;;;;19.20;8.88;;;;;;;;;;4995143;28;20492;-76
2022/03/27 06:22:32;;;;;;;19.95;8.65;;;;;;;;;;4995978;28;20471;-74
2022/03/27 06:24:58;;;;;;;15.95;8.25;;;;;;;;;;4996611;28;20027;-77
2022/03/27 06:27:24;;;;;;;28.13;9.38;;;;;;;;;;4979702;28;20022;-77
2022/03/27 06:29:50;;;;;;;13.57;8.32;;;;;;;;;;4998082;28;20121;-77
2022/03/27 06:32:16;;;;;;;26.98;8.60;;;;;;;;;;4999771;28;20395;-76
2022/03/27 06:34:42;;;;;;;13.00;8.07;;;;;;;;;;5005105;28;20443;-77
2022/03/27 06:37:08;;;;;;;19.38;9.13;;;;;;;;;;5004777;28;20026;-79
2022/03/27 06:39:34;;;;;;;39.42;9.45;;;;;;;;;;4998109;28;20022;-77
2022/03/27 06:42:00;;;;;;;23.50;9.32;;;;;;;;;;4999033;28;20149;-78
2022/03/27 06:44:26;;;;;;;28.33;10.50;;;;;;;;;;4996425;28;20033;-76
2022/03/27 06:46:51;;;;;;;23.45;10.35;;;;;;;;;;4995783;28;20034;-76
2022/03/27 06:49:18;;;;;;;28.55;10.52;;;;;;;;;;4995655;28;20464;-75
2022/03/27 06:51:43;;;;;;;23.73;10.63;;;;;;;;;;4994550;28;20025;-74
2022/03/27 06:54:09;;;;;;;25.10;12.00;;;;;;;;;;4994402;28;20034;-73
2022/03/27 06:56:36;;;;;;;24.52;10.75;;;;;;;;;;4994270;28;20037;-73
2022/03/27 06:59:02;;;;;;;81.95;9.98;;;;;;;;;;4994484;28;20022;-73
2022/03/27 07:04:13;;;;;;;25.95;11.10;;;;;;;;;;4994737;28;20093;-72
2022/03/27 07:06:42;;;;;;;21.40;11.77;;;;;;;;;;4992930;28;20030;-74
2022/03/27 07:09:09;;;;;;;21.05;11.95;;;;;;;;;;4994369;28;20494;-75
2022/03/27 07:11:36;;;;;;;20.10;11.85;;;;;;;;;;5001501;28;20038;-74
2022/03/27 07:14:02;;;;;;;46.08;12.73;;;;;;;;;;5012677;28;20018;-73
2022/03/27 07:16:30;;;;;;;20.40;11.05;;;;;;;;;;5014504;28;20040;-73
2022/03/27 07:18:56;;;;;;;25.52;12.45;;;;;;;;;;5013027;28;20037;-72
2022/03/27 07:21:22;;;;;;;28.30;13.73;;;;;;;;;;5012729;28;20045;-73
2022/03/27 07:23:48;;;;;;;27.60;13.32;;;;;;;;;;5007061;28;20026;-74
2022/03/27 07:26:14;;;;;;;26.98;12.50;;;;;;;;;;5014355;28;20096;-74
2022/03/27 07:28:40;;;;;;;28.23;13.15;;;;;;;;;;5011733;28;20041;-74
2022/03/27 07:31:05;;;;;;;26.65;14.00;;;;;;;;;;5011090;28;20030;-74
2022/03/27 07:33:31;;;;;;;29.80;13.75;;;;;;;;;;5013541;28;20106;-75
2022/03/27 07:35:57;;;;;;;34.88;14.93;;;;;;;;;;4991696;28;20054;-74
2022/03/27 07:38:23;;;;;;;70.05;16.48;;;;;;;;;;4996348;28;20458;-75
2022/03/27 07:40:49;;;;;;;47.47;17.48;;;;;;;;;;4996900;28;20049;-75
2022/03/27 07:43:15;;;;;;;43.33;17.77;;;;;;;;;;4995362;28;20401;-75
2022/03/27 07:45:41;;;;;;;38.35;18.35;;;;;;;;;;4993521;28;20048;-76
2022/03/27 07:48:07;;;;;;;36.55;16.88;;;;;;;;;;4995200;28;20015;-75
2022/03/27 07:50:34;;;;;;;40.40;17.38;;;;;;;;;;4977728;28;20031;-77
2022/03/27 07:53:00;;;;;;;44.20;17.60;;;;;;;;;;4995691;28;20026;-75
2022/03/27 07:55:27;;;;;;;46.22;16.17;;;;;;;;;;4977517;28;20038;-73
2022/03/27 07:57:53;;;;;;;38.22;15.40;;;;;;;;;;4995880;28;20507;-75
2022/03/27 08:00:19;;;;;;;34.13;15.13;;;;;;;;;;4994359;28;20030;-76
2022/03/27 08:02:45;;;;;;;44.25;17.25;;;;;;;;;;4994688;28;20033;-76
2022/03/27 08:05:12;;;;;;;48.10;17.63;;;;;;;;;;4994631;28;20023;-76
2022/03/27 08:07:38;;;;;;;42.42;17.58;;;;;;;;;;4994274;28;20018;-76
2022/03/27 08:10:05;;;;;;;50.97;17.75;;;;;;;;;;4994912;28;20029;-76
2022/03/27 08:12:31;;;;;;;47.63;18.00;;;;;;;;;;4984474;28;20449;-74
2022/03/27 08:14:57;;;;;;;43.97;17.35;;;;;;;;;;4980302;28;20038;-76
2022/03/27 08:17:23;;;;;;;62.22;21.08;;;;;;;;;;4959899;28;20050;-72
2022/03/27 08:19:50;;;;;;;55.33;20.48;;;;;;;;;;4977995;28;20053;-74
2022/03/27 08:22:16;;;;;;;59.97;20.83;;;;;;;;;;4973082;28;20031;-75
2022/03/27 08:24:42;;;;;;;64.25;19.90;;;;;;;;;;4973720;28;20023;-74
2022/03/27 08:27:08;;;;;;;53.60;20.20;;;;;;;;;;4972703;28;20030;-74
2022/03/27 08:29:35;;;;;;;62.50;20.67;;;;;;;;;;4973561;28;20038;-74
2022/03/27 08:32:03;;;;;;;55.22;20.95;;;;;;;;;;4973383;28;20057;-75
2022/03/27 08:34:31;;;;;;;61.22;21.60;;;;;;;;;;4973606;28;20518;-77
2022/03/27 08:36:58;;;;;;;61.90;20.05;;;;;;;;;;4973570;28;20026;-75
2022/03/27 08:39:24;;;;;;;60.92;20.33;;;;;;;;;;4973607;28;20035;-77
2022/03/27 08:41:51;;;;;;;62.10;20.38;;;;;;;;;;4956038;28;20498;-77
2022/03/27 08:44:21;;;;;;;63.05;19.60;;;;;;;;;;4974238;28;20118;-77
2022/03/27 08:46:48;;;;;;;69.82;18.20;;;;;;;;;;4981193;28;20034;-77
2022/03/27 08:49:17;;;;;;;56.00;16.17;;;;;;;;;;4981895;28;20027;-77
2022/03/27 08:51:49;;;;;;;58.70;15.85;;;;;;;;;;4972898;28;20041;-75
2022/03/27 08:54:17;;;;;;;62.17;17.58;;;;;;;;;;4973005;28;20034;-74
2022/03/27 08:56:47;;;;;;;61.85;17.17;;;;;;;;;;4973653;28;20026;-74
2022/03/27 08:59:14;;;;;;;61.55;16.35;;;;;;;;;;4977107;28;20037;-76
2022/03/27 09:01:40;;;;;;;48.92;14.60;;;;;;;;;;4973022;28;20047;-76
2022/03/27 09:04:06;;;;;;;58.90;15.50;;;;;;;;;;4973765;28;20487;-76
2022/03/27 09:06:33;;;;;;;52.60;14.40;;;;;;;;;;4972767;28;20027;-75
2022/03/27 09:08:59;;;;;;;49.38;13.85;;;;;;;;;;4973704;28;20112;-77
2022/03/27 09:11:26;;;;;;;51.33;13.48;;;;;;;;;;4973626;28;20468;-76
2022/03/27 09:13:53;;;;;;;42.60;12.57;;;;;;;;;;4974766;28;20085;-77
2022/03/27 09:16:20;;;;;;;43.80;12.23;;;;;;;;;;4971252;28;20084;-77
2022/03/27 09:18:52;;;;;;;47.45;12.18;;;;;;;;;;4972645;28;20042;-75
2022/03/27 09:21:19;;;;;;;47.85;12.65;;;;;;;;;;4973632;28;20480;-75
2022/03/27 09:23:51;;;;;;;44.30;11.95;;;;;;;;;;4973992;28;20023;-77
2022/03/27 09:26:17;;;;;;;38.85;10.20;;;;;;;;;;4955599;28;20652;-75
2022/03/27 09:28:52;;;;;;;40.13;10.43;;;;;;;;;;4972927;28;20163;-74
2022/03/27 09:31:19;;;;;;;42.00;10.68;;;;;;;;;;4972666;28;20033;-75
2022/03/27 09:33:51;;;;;;;42.55;9.55;;;;;;;;;;4973199;28;20031;-75
2022/03/27 09:36:17;;;;;;;40.25;10.32;;;;;;;;;;4972963;28;20061;-73
2022/03/27 09:38:57;;;;;;;42.72;9.40;;;;;;;;;;4960546;28;20030;-73
2022/03/27 09:41:31;;;;;;;32.22;8.77;;;;;;;;;;4977852;28;20066;-75
2022/03/27 09:43:57;;;;;;;;;;;;;;;;;;4961029;28;20030;-73
2022/03/27 09:46:23;;;;;;;27.80;7.57;;;;;;;;;;4976796;28;19917;-76
2022/03/27 09:48:56;;;;;;;38.13;8.85;;;;;;;;;;4977080;28;20070;-74
2022/03/27 09:51:22;;;;;;;28.05;8.07;;;;;;;;;;4978521;28;20034;-74
2022/03/27 09:53:55;;;;;;;32.85;8.55;;;;;;;;;;4978217;28;20082;-74
2022/03/27 09:56:28;;;;;;;30.50;8.88;;;;;;;;;;4978808;28;20023;-76
2022/03/27 09:58:54;;;;;;;26.38;8.07;;;;;;;;;;4964081;28;20042;-76
2022/03/27 10:01:22;;;;;;;31.38;9.05;;;;;;;;;;4977402;28;20031;-76
2022/03/27 10:04:07;;;;;;;26.23;8.02;;;;;;;;;;4976657;28;20018;-75
2022/03/27 10:06:36;;;;;;;34.63;8.93;;;;;;;;;;4978971;28;20107;-77
2022/03/27 10:09:03;;;;;;;28.25;8.52;;;;;;;;;;4965581;28;20035;-75
2022/03/27 10:11:29;;;;;;;33.53;8.55;;;;;;;;;;4980007;28;20043;-76
2022/03/27 10:13:55;;;;;;;31.40;8.55;;;;;;;;;;4978134;28;20098;-75
2022/03/27 10:16:28;;;;;;;32.63;9.10;;;;;;;;;;4979687;28;20050;-76
2022/03/27 10:18:56;;;;;;;30.00;8.85;;;;;;;;;;4979804;28;20113;-74
2022/03/27 10:21:24;;;;;;;33.95;9.30;;;;;;;;;;4989843;28;20070;-74
2022/03/27 10:23:54;;;;;;;31.63;9.20;;;;;;;;;;4980674;28;20023;-75
2022/03/27 10:26:20;;;;;;;26.50;8.73;;;;;;;;;;4979275;28;20547;-73
2022/03/27 10:28:48;;;;;;;28.40;9.25;;;;;;;;;;4977688;28;20053;-74
2022/03/27 10:31:14;;;;;;;27.55;8.35;;;;;;;;;;4976948;28;20030;-75
2022/03/27 10:33:40;;;;;;;22.10;7.78;;;;;;;;;;4975845;28;20046;-74
2022/03/27 10:36:24;;;;;;;32.88;9.07;;;;;;;;;;4975540;28;20109;-74
2022/03/27 10:38:55;;;;;;;32.58;9.35;;;;;;;;;;4976312;28;20058;-75
2022/03/27 10:41:40;;;;;;;25.83;8.50;;;;;;;;;;4975777;28;20492;-76
2022/03/27 10:44:09;;;;;;;29.63;9.60;;;;;;;;;;4958774;28;20023;-73
2022/03/27 10:46:35;;;;;;;26.30;9.18;;;;;;;;;;4974980;28;20026;-73
2022/03/27 10:49:14;;;;;;;22.48;7.82;;;;;;;;;;4974660;28;20034;-74
2022/03/27 10:51:42;;;;;;;28.35;9.80;;;;;;;;;;4957975;28;20030;-75
2022/03/27 10:54:07;;;;;;;28.63;9.27;;;;;;;;;;4975514;28;20038;-74
2022/03/27 10:56:34;;;;;;;29.90;9.60;;;;;;;;;;4975091;28;20042;-74
2022/03/27 10:59:07;;;;;;;26.05;8.40;;;;;;;;;;4975298;28;20066;-75
2022/03/27 11:01:38;;;;;;;28.83;8.48;;;;;;;;;;4975282;28;20053;-75
2022/03/27 11:04:05;;;;;;;28.73;9.05;;;;;;;;;;4975966;28;20027;-76
2022/03/27 11:06:33;;;;;;;27.23;11.00;;;;;;;;;;4975463;28;20109;-73
2022/03/27 11:09:00;;;;;;;24.48;8.48;;;;;;;;;;4975115;28;20102;-75
2022/03/27 11:11:38;;;;;;;24.75;8.23;;;;;;;;;;4975273;28;20110;-74
2022/03/27 11:14:05;;;;;;;21.35;8.68;;;;;;;;;;4975661;28;20098;-75
2022/03/27 11:16:33;;;;;;;26.50;9.55;;;;;;;;;;4975252;28;20165;-75
2022/03/27 11:18:59;;;;;;;27.58;9.55;;;;;;;;;;4976196;28;20399;-74
2022/03/27 11:21:28;;;;;;;30.58;9.43;;;;;;;;;;4975757;28;20492;-74
2022/03/27 11:23:55;;;;;;;21.52;8.25;;;;;;;;;;4975947;28;20555;-74
2022/03/27 11:26:21;;;;;;;20.67;7.78;;;;;;;;;;4974942;28;20026;-74
2022/03/27 11:28:47;;;;;;;22.65;8.32;;;;;;;;;;4975600;28;20101;-75
2022/03/27 11:31:13;;;;;;;18.55;7.50;;;;;;;;;;4975741;28;20524;-75
2022/03/27 11:33:39;;;;;;;18.63;7.25;;;;;;;;;;4958025;28;20085;-75
2022/03/27 11:36:08;;;;;;;18.92;7.90;;;;;;;;;;4977056;28;20027;-75
2022/03/27 11:38:35;;;;;;;19.60;7.35;;;;;;;;;;4977052;28;20161;-74
2022/03/27 11:41:20;;;;;;;16.73;6.60;;;;;;;;;;4975520;28;20154;-76
2022/03/27 11:43:46;;;;;;;20.33;7.55;;;;;;;;;;4977481;28;20027;-76
2022/03/27 11:46:20;;;;;;;22.08;7.97;;;;;;;;;;4976913;28;20599;-75
2022/03/27 11:48:46;;;;;;;;;;;;;;;;;;4977060;28;20165;-75
2022/03/27 11:51:15;;;;;;;16.60;6.60;;;;;;;;;;4975472;28;19968;-76
2022/03/27 11:53:41;;;;;;;20.83;7.75;;;;;;;;;;4974897;28;20031;-75
2022/03/27 11:56:11;;;;;;;19.50;7.65;;;;;;;;;;4974615;28;20109;-75
2022/03/27 11:58:38;;;;;;;20.00;7.22;;;;;;;;;;4975517;28;20019;-76
2022/03/27 12:01:04;;;;;;;18.35;7.35;;;;;;;;;;4975584;28;20376;-75
2022/03/27 12:03:31;;;;;;;19.35;6.75;;;;;;;;;;4995459;28;20596;-77
2022/03/27 12:06:03;;;;;;;19.33;6.90;;;;;;;;;;4995431;28;20113;-76
2022/03/27 12:08:40;;;;;;;17.02;7.57;;;;;;;;;;4994434;28;20026;-75
2022/03/27 12:11:06;;;;;;;19.73;7.88;;;;;;;;;;4994133;28;20034;-75
2022/03/27 12:13:39;;;;;;;15.18;6.75;;;;;;;;;;4994978;28;20026;-75
2022/03/27 12:16:06;;;;;;;18.63;7.93;;;;;;;;;;4994981;28;20018;-77
2022/03/27 12:18:33;;;;;;;17.45;6.93;;;;;;;;;;4979384;28;20027;-75
2022/03/27 12:21:05;;;;;;;17.48;7.60;;;;;;;;;;4996173;28;20500;-76
2022/03/27 12:23:35;;;;;;;15.95;6.47;;;;;;;;;;4996574;28;20022;-76
2022/03/27 12:31:39;;;;;;;15.55;6.43;;;;;;;;;;4996541;28;20041;-76
2022/03/27 12:34:05;;;;;;;19.40;7.97;;;;;;;;;;4995273;28;20026;-76
2022/03/27 12:36:31;;;;;;;16.63;7.70;;;;;;;;;;4993658;28;20444;-75
2022/03/27 12:38:57;;;;;;;18.08;7.13;;;;;;;;;;4996587;28;20042;-75
2022/03/27 12:41:39;;;;;;;19.88;7.20;;;;;;;;;;4994791;28;20026;-76
2022/03/27 12:44:05;;;;;;;14.15;6.45;;;;;;;;;;4994394;28;20019;-76
2022/03/27 12:46:31;;;;;;;15.02;6.43;;;;;;;;;;4994601;28;20502;-77
2022/03/27 12:49:02;;;;;;;15.40;6.03;;;;;;;;;;4980460;28;20391;-77
2022/03/27 12:51:28;;;;;;;12.63;6.03;;;;;;;;;;4997294;28;20022;-76
2022/03/27 12:54:04;;;;;;;14.45;6.05;;;;;;;;;;4996335;28;20045;-76
2022/03/27 12:56:31;;;;;;;14.07;5.88;;;;;;;;;;4997393;28;20057;-75
2022/03/27 12:58:57;;;;;;;16.23;6.53;;;;;;;;;;4998073;28;20030;-76
2022/03/27 13:01:24;;;;;;;19.15;6.45;;;;;;;;;;4998752;28;20037;-77
2022/03/27 13:04:00;;;;;;;15.77;5.88;;;;;;;;;;4978803;28;20061;-76
2022/03/27 13:06:36;;;;;;;14.77;6.38;;;;;;;;;;4997351;28;20075;-75
2022/03/27 13:09:03;;;;;;;16.73;6.82;;;;;;;;;;4995579;28;20500;-74
2022/03/27 13:11:30;;;;;;;16.83;6.60;;;;;;;;;;4994055;28;20065;-76
2022/03/27 13:14:00;;;;;;;15.23;6.30;;;;;;;;;;4993852;28;20026;-76
2022/03/27 13:16:27;;;;;;;17.70;6.57;;;;;;;;;;4995503;28;20022;-75
2022/03/27 13:19:00;;;;;;;13.32;6.68;;;;;;;;;;4993654;28;20101;-76
2022/03/27 13:21:26;;;;;;;13.88;6.30;;;;;;;;;;4982425;28;20025;-77
2022/03/27 13:23:52;;;;;;;15.45;5.60;;;;;;;;;;4993622;28;20022;-77
2022/03/27 13:26:18;;;;;;;15.10;5.82;;;;;;;;;;4993064;28;20030;-75
2022/03/27 13:28:44;;;;;;;19.15;6.15;;;;;;;;;;4993985;28;20106;-75
2022/03/27 13:31:11;;;;;;;17.27;5.95;;;;;;;;;;4992806;28;20113;-76
2022/03/27 13:33:37;;;;;;;14.68;6.32;;;;;;;;;;4976064;28;20027;-77
2022/03/27 13:36:03;;;;;;;11.98;5.88;;;;;;;;;;4993006;28;20026;-75
2022/03/27 13:38:29;;;;;;;18.45;6.13;;;;;;;;;;4993403;28;20030;-76
2022/03/27 13:43:39;;;;;;;15.57;6.70;;;;;;;;;;4995504;28;20037;-75
2022/03/27 13:46:05;;;;;;;16.73;6.22;;;;;;;;;;4956291;28;20061;-77
2022/03/27 13:48:31;;;;;;;15.00;6.45;;;;;;;;;;4956327;28;20023;-76
2022/03/27 13:50:57;;;;;;;14.00;5.43;;;;;;;;;;4977004;28;20030;-75
2022/03/27 13:53:23;;;;;;;15.73;6.30;;;;;;;;;;4958750;28;20027;-76
2022/03/27 13:55:50;;;;;;;16.63;6.10;;;;;;;;;;4990087;28;20049;-74
2022/03/27 13:58:16;;;;;;;13.18;5.88;;;;;;;;;;4997948;28;20102;-76
2022/03/27 14:00:42;;;;;;;17.55;6.00;;;;;;;;;;4994912;28;20026;-75
2022/03/27 14:03:08;;;;;;;14.65;6.22;;;;;;;;;;4992494;28;20038;-74
2022/03/27 14:05:34;;;;;;;17.58;6.97;;;;;;;;;;4991738;28;20090;-75
2022/03/27 14:08:01;;;;;;;18.83;7.80;;;;;;;;;;4997386;28;20041;-74
2022/03/27 14:10:27;;;;;;;18.15;7.18;;;;;;;;;;4992851;28;20041;-76
2022/03/27 14:12:54;;;;;;;13.00;6.05;;;;;;;;;;4992390;28;20105;-76
2022/03/27 14:15:20;;;;;;;16.65;7.63;;;;;;;;;;4994488;28;20019;-76
2022/03/27 14:17:51;;;;;;;18.02;6.50;;;;;;;;;;4992457;28;20018;-75
2022/03/27 14:20:17;;;;;;;19.70;6.97;;;;;;;;;;4992538;28;20026;-76
2022/03/27 14:22:43;;;;;;;16.67;7.05;;;;;;;;;;4994566;28;20027;-75
2022/03/27 14:25:12;;;;;;;13.88;6.40;;;;;;;;;;4995837;28;20026;-77
2022/03/27 14:27:40;;;;;;;18.00;8.30;;;;;;;;;;4996905;28;20039;-76
2022/03/27 14:30:08;;;;;;;13.82;5.82;;;;;;;;;;4998261;28;20029;-75
2022/03/27 14:32:34;;;;;;;17.13;6.80;;;;;;;;;;4982732;28;20127;-74
2022/03/27 14:35:00;;;;;;;16.90;6.35;;;;;;;;;;5001997;28;20480;-74
2022/03/27 14:37:27;;;;;;;15.98;6.28;;;;;;;;;;4985454;28;20037;-76